CheckWX is a tool to help pilots better visualize weather data.  It is not intended as a substitute for an official pre-flight weather briefing.

08:05:04 UTC

GMFM TAF
Bassatine Airport
Meknes, Morocco
TAF GMFM 182300Z 1900/2006 VRB02KT CAVOK BECMG 2002/2006 10010KT

Mar-19@
00:00 UTC

Mar-19 @ 00:00 UTC

Mar-20@
02:00 UTC

Mar-20 @ 02:00 UTC

TAF GMFM 182300Z 1900/2006 VRB02KT CAVOK
Wind
  • Variable at 2 KTS
Conditions
No significant weather
Cloud Levels
  • No significant clouds

Mar-20@
02:00 UTC

Mar-20 @ 02:00 UTC

Mar-20@
06:00 UTC

Mar-20 @ 06:00 UTC

BECMG 2002/2006 10010KT

Becoming

Becoming Conditions expected by Wed, Mar 20, 2019 @ 06:00 UTC

Wind
  • 100° at 10 KTS
Conditions
No significant weather
Cloud Levels
  • No significant clouds